createdAt,value
2016-05-05T00:00:56.570Z,24.75
2016-05-05T00:01:56.526Z,24.56
2016-05-05T00:02:56.482Z,24.75
2016-05-05T00:03:56.453Z,24.56
2016-05-05T00:04:56.378Z,24.65
2016-05-05T00:05:56.552Z,24.75
2016-05-05T00:06:56.305Z,24.75
2016-05-05T00:07:56.261Z,24.65
2016-05-05T00:08:56.216Z,24.56
2016-05-05T00:09:59.175Z,24.65
2016-05-05T00:10:59.647Z,24.75
2016-05-05T00:11:56.084Z,24.46
2016-05-05T00:12:59.074Z,24.56
2016-05-05T00:13:55.824Z,24.56
2016-05-05T00:14:55.936Z,24.75
2016-05-05T00:15:58.894Z,24.56
2016-05-05T00:16:56.066Z,24.75
2016-05-05T00:17:55.787Z,24.65
2016-05-05T00:18:55.760Z,24.65
2016-05-05T00:19:56.293Z,24.56
2016-05-05T00:21:01.705Z,24.56
2016-05-05T00:21:55.627Z,24.56
2016-05-05T00:22:55.582Z,24.56
2016-05-05T00:23:59.151Z,24.56
2016-05-05T00:24:55.494Z,24.56
2016-05-05T00:25:55.450Z,24.75
2016-05-05T00:26:55.406Z,24.56
2016-05-05T00:27:55.346Z,24.56
2016-05-05T00:28:58.320Z,24.85
2016-05-05T00:29:55.273Z,24.46
2016-05-05T00:30:58.248Z,24.56
2016-05-05T00:32:04.062Z,24.65
2016-05-05T00:32:55.140Z,24.75
2016-05-05T00:33:58.096Z,24.65
2016-05-05T00:34:55.037Z,24.75
2016-05-05T00:35:58.214Z,24.56
2016-05-05T00:36:54.964Z,24.46
2016-05-05T00:37:57.920Z,24.65
2016-05-05T00:38:57.703Z,24.75
2016-05-05T00:39:54.878Z,24.75
2016-05-05T00:40:54.771Z,24.46
2016-05-05T00:41:54.946Z,24.74
2016-05-05T00:42:54.527Z,24.56
2016-05-05T00:43:54.639Z,24.75
2016-05-05T00:44:54.594Z,24.46
2016-05-05T00:45:54.550Z,24.75
2016-05-05T00:46:54.506Z,24.65
2016-05-05T00:47:54.478Z,24.46
2016-05-05T00:48:57.433Z,24.46
2016-05-05T00:49:54.358Z,24.65
2016-05-05T00:50:54.329Z,24.65
2016-05-05T00:51:54.271Z,24.65
2016-05-05T00:52:57.085Z,24.75
2016-05-05T00:53:57.197Z,24.75
2016-05-05T00:54:57.028Z,24.75
2016-05-05T00:55:53.937Z,24.75
2016-05-05T00:56:54.409Z,24.75
2016-05-05T00:57:54.005Z,24.85
2016-05-05T00:58:53.993Z,24.75
2016-05-05T00:59:53.917Z,24.56
2016-05-05T01:00:53.872Z,24.75
2016-05-05T01:01:53.828Z,24.75
2016-05-05T01:02:53.784Z,24.56
2016-05-05T01:03:53.739Z,24.75
2016-05-05T01:04:53.695Z,24.46
2016-05-05T01:05:53.651Z,24.46
2016-05-05T01:06:53.607Z,24.56
2016-05-05T01:07:53.563Z,24.75
2016-05-05T01:08:56.519Z,24.56
2016-05-05T01:09:53.474Z,24.65
2016-05-05T01:10:53.477Z,24.27
2016-05-05T01:11:53.386Z,24.46
2016-05-05T01:12:53.169Z,24.65
2016-05-05T01:13:53.282Z,24.46
2016-05-05T01:14:53.253Z,24.56
2016-05-05T01:15:53.210Z,24.27
2016-05-05T01:16:53.166Z,24.37
2016-05-05T01:17:53.121Z,24.75
2016-05-05T01:18:56.061Z,24.27
2016-05-05T01:19:53.016Z,24.37
2016-05-05T01:20:52.816Z,24.56
2016-05-05T01:21:52.929Z,24.85
2016-05-05T01:22:55.900Z,24.65
2016-05-05T01:23:52.856Z,24.46
2016-05-05T01:24:56.015Z,24.27
2016-05-05T01:25:52.752Z,24.37
2016-05-05T01:26:52.693Z,24.37
2016-05-05T01:27:52.663Z,24.26
2016-05-05T01:28:55.635Z,24.26
2016-05-05T01:29:52.590Z,24.37
2016-05-05T01:30:52.750Z,24.27
2016-05-05T01:31:52.487Z,24.46
2016-05-05T01:32:52.443Z,24.55
2016-05-05T01:33:52.226Z,24.46
2016-05-05T01:34:52.354Z,24.26
2016-05-05T01:35:52.514Z,24.27
2016-05-05T01:36:58.282Z,24.27
2016-05-05T01:37:55.222Z,24.08
2016-05-05T01:38:52.193Z,24.46
2016-05-05T01:39:55.133Z,24.35
2016-05-05T01:40:52.073Z,24.46
2016-05-05T01:41:52.045Z,24.46
2016-05-05T01:42:52.001Z,24.56
2016-05-05T01:43:54.956Z,24.37
2016-05-05T01:44:51.897Z,24.37
2016-05-05T01:45:51.697Z,24.46
2016-05-05T01:46:51.808Z,24.56
2016-05-05T01:47:51.763Z,24.37
2016-05-05T01:48:51.719Z,24.27
2016-05-05T01:49:51.504Z,24.35
2016-05-05T01:50:56.069Z,24.37
2016-05-05T01:51:54.682Z,24.55
2016-05-05T01:52:51.564Z,24.45
2016-05-05T01:53:51.546Z,24.45
2016-05-05T01:54:51.561Z,24.46
2016-05-05T01:55:51.403Z,24.35
2016-05-05T01:56:54.557Z,24.46
2016-05-05T01:57:52.168Z,24.46
2016-05-05T01:58:51.498Z,24.46
2016-05-05T01:59:51.469Z,24.65
2016-05-05T02:00:51.643Z,24.75
2016-05-05T02:01:51.397Z,24.45
2016-05-05T02:02:57.394Z,24.74
2016-05-05T02:03:51.356Z,24.56
2016-05-05T02:04:55.238Z,24.74
2016-05-05T02:05:58.201Z,24.64
2016-05-05T02:06:55.147Z,24.75
2016-05-05T02:07:55.090Z,24.64
2016-05-05T02:08:55.267Z,24.64
2016-05-05T02:09:55.022Z,24.75
2016-05-05T02:10:57.995Z,24.74
2016-05-05T02:11:57.937Z,24.55
2016-05-05T02:12:55.098Z,24.46
2016-05-05T02:13:57.852Z,24.64
2016-05-05T02:14:57.791Z,24.65
2016-05-05T02:15:54.749Z,24.64
2016-05-05T02:16:54.705Z,24.55
2016-05-05T02:17:54.865Z,24.74
2016-05-05T02:18:57.649Z,24.64
2016-05-05T02:19:54.574Z,24.45
2016-05-05T02:20:54.530Z,24.55
2016-05-05T02:21:54.486Z,24.46
2016-05-05T02:22:58.133Z,24.55
2016-05-05T02:23:54.400Z,24.75
2016-05-05T02:24:57.371Z,24.75
2016-05-05T02:25:54.296Z,24.45
2016-05-05T02:26:54.267Z,24.45
2016-05-05T02:27:54.223Z,24.55
2016-05-05T02:28:54.179Z,24.74
2016-05-05T02:29:53.963Z,24.64
2016-05-05T02:30:57.107Z,24.37
2016-05-05T02:31:54.031Z,24.46
2016-05-05T02:32:53.987Z,24.45
2016-05-05T02:33:53.786Z,24.35
2016-05-05T02:34:54.304Z,24.45
2016-05-05T02:35:56.870Z,24.55
2016-05-05T02:36:56.809Z,24.45
2016-05-05T02:37:56.797Z,24.64
2016-05-05T02:38:53.550Z,24.35
2016-05-05T02:39:53.678Z,24.37
2016-05-05T02:40:53.634Z,24.45
2016-05-05T02:41:56.589Z,24.37
2016-05-05T02:42:56.561Z,24.45
2016-05-05T02:43:53.500Z,24.45
2016-05-05T02:44:53.457Z,24.26
2016-05-05T02:45:53.413Z,24.26
2016-05-05T02:46:56.430Z,24.56
2016-05-05T02:47:56.308Z,24.35
2016-05-05T02:48:53.280Z,24.45
2016-05-05T02:49:53.235Z,24.37
2016-05-05T02:50:56.052Z,24.74
2016-05-05T02:51:53.350Z,24.64
2016-05-05T02:52:59.119Z,24.74
2016-05-05T02:53:53.043Z,24.45
2016-05-05T02:54:53.062Z,24.07
2016-05-05T02:55:52.955Z,24.16
2016-05-05T02:56:52.927Z,24.45
2016-05-05T02:57:53.085Z,24.45
2016-05-05T02:58:52.838Z,24.27
2016-05-05T02:59:52.794Z,24.46
2016-05-05T03:00:52.954Z,24.64
2016-05-05T03:01:52.690Z,24.35
2016-05-05T03:02:52.630Z,24.45
2016-05-05T03:03:52.617Z,24.16
2016-05-05T03:04:52.557Z,24.46
2016-05-05T03:05:55.857Z,24.55
2016-05-05T03:06:58.531Z,24.35
2016-05-05T03:07:52.425Z,24.26
2016-05-05T03:08:55.600Z,24.55
2016-05-05T03:09:52.337Z,24.46
2016-05-05T03:10:52.308Z,24.45
2016-05-05T03:11:52.247Z,24.65
2016-05-05T03:12:52.188Z,24.55
2016-05-05T03:13:52.144Z,24.64
2016-05-05T03:14:55.116Z,24.74
2016-05-05T03:15:51.914Z,24.45
2016-05-05T03:16:52.027Z,24.45
2016-05-05T03:17:54.827Z,24.55
2016-05-05T03:18:51.923Z,24.35
2016-05-05T03:19:52.083Z,24.35
2016-05-05T03:20:51.835Z,24.55
2016-05-05T03:21:54.649Z,24.45
2016-05-05T03:22:51.933Z,24.45
2016-05-05T03:23:51.686Z,24.64
2016-05-05T03:24:52.064Z,24.56
2016-05-05T03:25:51.614Z,24.55
2016-05-05T03:26:51.569Z,24.35
2016-05-05T03:27:54.541Z,24.55
2016-05-05T03:28:51.465Z,24.45
2016-05-05T03:29:51.438Z,24.55
2016-05-05T03:30:54.580Z,24.74
2016-05-05T03:31:54.348Z,24.74
2016-05-05T03:32:51.304Z,24.45
2016-05-05T03:33:54.245Z,24.64
2016-05-05T03:34:54.201Z,24.74
2016-05-05T03:35:51.173Z,24.74
2016-05-05T03:36:51.112Z,24.64
2016-05-05T03:37:50.928Z,24.55
2016-05-05T03:38:51.040Z,24.55
2016-05-05T03:39:51.386Z,24.64
2016-05-05T03:40:50.951Z,24.74
2016-05-05T03:41:50.906Z,24.26
2016-05-05T03:42:50.847Z,24.55
2016-05-05T03:43:53.819Z,24.55
2016-05-05T03:44:50.775Z,24.55
2016-05-05T03:45:53.730Z,24.65
2016-05-05T03:46:53.655Z,24.55
2016-05-05T03:47:50.642Z,24.74
2016-05-05T03:48:50.583Z,24.64
2016-05-05T03:49:50.381Z,24.74
2016-05-05T03:50:50.321Z,24.55
2016-05-05T03:51:53.480Z,24.55
2016-05-05T03:52:50.405Z,24.64
2016-05-05T03:53:50.345Z,24.75
2016-05-05T03:54:50.738Z,24.45
2016-05-05T03:55:50.101Z,24.74
2016-05-05T03:56:50.213Z,24.75
2016-05-05T03:57:53.200Z,24.65
2016-05-05T03:58:50.124Z,24.55
2016-05-05T03:59:52.940Z,24.45
2016-05-05T04:00:55.910Z,24.84
2016-05-05T04:01:53.195Z,24.64
2016-05-05T04:02:56.182Z,24.74
2016-05-05T04:03:52.903Z,24.75
2016-05-05T04:04:49.875Z,24.74
2016-05-05T04:05:49.815Z,24.55
2016-05-05T04:06:49.771Z,24.64
2016-05-05T04:07:49.712Z,24.74
2016-05-05T04:08:52.698Z,24.64
2016-05-05T04:09:50.123Z,24.64
2016-05-05T04:10:49.578Z,24.74
2016-05-05T04:11:49.394Z,24.74
2016-05-05T04:12:52.522Z,24.45
2016-05-05T04:13:52.462Z,24.55
2016-05-05T04:14:49.417Z,24.74
2016-05-05T04:15:49.358Z,24.64
2016-05-05T04:16:49.158Z,24.64
2016-05-05T04:17:49.286Z,24.65
2016-05-05T04:18:52.225Z,24.64
2016-05-05T04:19:49.025Z,24.45
2016-05-05T04:20:49.355Z,24.85
2016-05-05T04:21:49.092Z,24.64
2016-05-05T04:22:49.033Z,24.74
2016-05-05T04:23:49.004Z,24.74
2016-05-05T04:24:48.960Z,24.74
2016-05-05T04:25:48.744Z,24.64
2016-05-05T04:26:48.872Z,24.55
2016-05-05T04:27:48.828Z,24.74
2016-05-05T04:28:51.627Z,24.74
2016-05-05T04:29:48.568Z,24.64
2016-05-05T04:30:48.679Z,24.55
2016-05-05T04:31:54.713Z,24.64
2016-05-05T04:32:48.607Z,24.74
2016-05-05T04:33:48.546Z,24.84
2016-05-05T04:34:48.502Z,24.74
2016-05-05T04:35:48.458Z,24.64
2016-05-05T04:36:48.430Z,24.64
2016-05-05T04:37:48.385Z,24.64
2016-05-05T04:38:48.545Z,24.74
2016-05-05T04:39:48.391Z,24.75
2016-05-05T04:40:48.222Z,24.93
2016-05-05T04:41:48.193Z,24.64
2016-05-05T04:42:54.165Z,24.55
2016-05-05T04:43:48.089Z,24.84
2016-05-05T04:44:51.483Z,24.74
2016-05-05T04:45:48.001Z,24.84
2016-05-05T04:46:48.332Z,24.55
2016-05-05T04:47:47.928Z,24.93
2016-05-05T04:48:47.899Z,24.55
2016-05-05T04:49:47.840Z,24.55
2016-05-05T04:50:47.655Z,24.64
2016-05-05T04:51:47.595Z,24.94
2016-05-05T04:52:50.707Z,24.74
2016-05-05T04:53:47.648Z,24.74
2016-05-05T04:54:47.478Z,24.64
2016-05-05T04:55:50.777Z,24.74
2016-05-05T04:56:47.516Z,24.74
2016-05-05T04:57:47.314Z,24.74
2016-05-05T04:58:47.441Z,24.74
2016-05-05T04:59:50.383Z,24.64
2016-05-05T05:00:47.166Z,24.74
2016-05-05T05:01:47.294Z,24.64
2016-05-05T05:02:47.250Z,24.64
2016-05-05T05:03:47.237Z,24.64
2016-05-05T05:04:47.176Z,24.64
2016-05-05T05:05:47.132Z,24.74
2016-05-05T05:06:47.089Z,24.74
2016-05-05T05:07:46.935Z,24.74
2016-05-05T05:08:49.985Z,24.75
2016-05-05T05:09:47.003Z,24.84
2016-05-05T05:10:46.881Z,24.64
2016-05-05T05:11:46.836Z,24.64
2016-05-05T05:12:46.793Z,24.74
2016-05-05T05:13:46.592Z,24.74
2016-05-05T05:14:46.720Z,24.93
2016-05-05T05:15:46.660Z,24.64
2016-05-05T05:16:46.662Z,24.64
2016-05-05T05:17:46.774Z,24.64
2016-05-05T05:18:46.542Z,24.74
2016-05-05T05:19:46.483Z,24.74
2016-05-05T05:20:46.455Z,24.64
2016-05-05T05:21:46.395Z,24.74
2016-05-05T05:22:46.178Z,24.64
2016-05-05T05:23:46.306Z,24.74
2016-05-05T05:24:49.950Z,24.74
2016-05-05T05:25:46.202Z,24.74
2016-05-05T05:26:46.158Z,24.74
2016-05-05T05:27:46.113Z,24.74
2016-05-05T05:28:45.929Z,24.74
2016-05-05T05:29:49.025Z,24.74
2016-05-05T05:30:45.997Z,24.55
2016-05-05T05:31:46.155Z,24.55
2016-05-05T05:32:45.737Z,24.64
2016-05-05T05:33:45.849Z,24.64
2016-05-05T05:34:45.804Z,24.74
2016-05-05T05:35:45.760Z,24.74
2016-05-05T05:36:45.716Z,24.74
2016-05-05T05:37:45.671Z,24.64
2016-05-05T05:38:45.628Z,24.64
2016-05-05T05:39:45.599Z,24.74
2016-05-05T05:40:45.540Z,24.64
2016-05-05T05:41:45.511Z,24.74
2016-05-05T05:42:45.435Z,24.74
2016-05-05T05:43:45.422Z,24.64
2016-05-05T05:44:45.362Z,24.74
2016-05-05T05:45:45.318Z,24.64
2016-05-05T05:46:45.337Z,24.64
2016-05-05T05:47:45.214Z,24.74
2016-05-05T05:48:45.186Z,24.64
2016-05-05T05:49:45.126Z,24.55
2016-05-05T05:50:45.081Z,24.74
2016-05-05T05:51:45.053Z,24.64
2016-05-05T05:52:45.009Z,24.74
2016-05-05T05:53:44.949Z,24.64
2016-05-05T05:54:45.671Z,24.55
2016-05-05T05:55:44.861Z,24.64
2016-05-05T05:56:44.816Z,24.64
2016-05-05T05:57:47.772Z,24.93
2016-05-05T05:58:44.728Z,25.02
2016-05-05T05:59:44.685Z,25.02
2016-05-05T06:00:44.640Z,25.02
2016-05-05T06:01:44.580Z,24.74
2016-05-05T06:02:47.582Z,24.74
2016-05-05T06:03:44.507Z,24.64
2016-05-05T06:04:44.448Z,24.93
2016-05-05T06:05:47.622Z,24.55
2016-05-05T06:06:44.360Z,24.93
2016-05-05T06:07:44.331Z,24.55
2016-05-05T06:08:44.270Z,24.74
2016-05-05T06:09:47.257Z,24.84
2016-05-05T06:10:44.215Z,24.93
2016-05-05T06:11:44.138Z,25.12
2016-05-05T06:12:53.015Z,25.12
2016-05-05T06:13:44.050Z,24.64
2016-05-05T06:14:47.006Z,25.02
2016-05-05T06:15:43.805Z,24.74
2016-05-05T06:16:46.917Z,24.84
2016-05-05T06:17:46.873Z,24.93
2016-05-05T06:18:44.031Z,24.74
2016-05-05T06:19:46.784Z,24.74
2016-05-05T06:20:46.741Z,24.93
2016-05-05T06:21:43.572Z,24.55
2016-05-05T06:22:43.652Z,25.02
2016-05-05T06:23:43.602Z,25.02
2016-05-05T06:24:43.574Z,25.02
2016-05-05T06:25:43.498Z,24.84
2016-05-05T06:26:43.455Z,25.02
2016-05-05T06:27:43.254Z,24.84
2016-05-05T06:28:43.381Z,24.84
2016-05-05T06:29:46.181Z,25.02
2016-05-05T06:30:43.293Z,25.12
2016-05-05T06:31:43.452Z,24.93
2016-05-05T06:32:43.236Z,25.02
2016-05-05T06:33:43.145Z,25.02
2016-05-05T06:34:43.132Z,24.84
2016-05-05T06:35:46.056Z,25.02
2016-05-05T06:36:46.012Z,24.93
2016-05-05T06:37:45.984Z,25.02
2016-05-05T06:38:42.923Z,25.02
2016-05-05T06:39:42.723Z,24.93
2016-05-05T06:40:43.742Z,24.93
2016-05-05T06:41:42.650Z,24.93
2016-05-05T06:42:42.748Z,24.84
2016-05-05T06:43:42.703Z,25.02
2016-05-05T06:44:45.737Z,25.02
2016-05-05T06:45:45.630Z,24.93
2016-05-05T06:46:42.398Z,24.93
2016-05-05T06:47:42.511Z,24.84
2016-05-05T06:48:42.466Z,24.64
2016-05-05T06:49:42.422Z,24.84
2016-05-05T06:50:42.378Z,24.93
2016-05-05T06:51:42.333Z,24.84
2016-05-05T06:52:42.274Z,24.84
2016-05-05T06:53:42.277Z,24.84
2016-05-05T06:54:42.280Z,24.93
2016-05-05T06:55:45.172Z,24.84
2016-05-05T06:56:42.097Z,24.93
2016-05-05T06:57:42.053Z,24.84
2016-05-05T06:58:41.852Z,24.84
2016-05-05T06:59:44.980Z,24.74
2016-05-05T07:00:41.935Z,24.84
2016-05-05T07:01:41.893Z,24.93
2016-05-05T07:02:41.676Z,25.02
2016-05-05T07:03:41.788Z,24.74
2016-05-05T07:04:41.744Z,24.93
2016-05-05T07:05:41.700Z,24.74
2016-05-05T07:06:44.671Z,24.84
2016-05-05T07:07:41.612Z,24.93
2016-05-05T07:08:41.567Z,24.93
2016-05-05T07:09:41.523Z,24.84
2016-05-05T07:10:41.479Z,25.12
2016-05-05T07:11:44.450Z,24.74
2016-05-05T07:12:41.390Z,25.12
2016-05-05T07:13:41.362Z,24.74
2016-05-05T07:14:41.537Z,25.12
2016-05-05T07:15:41.242Z,24.64
2016-05-05T07:16:41.088Z,25.12
2016-05-05T07:17:41.373Z,25.02
2016-05-05T07:18:41.125Z,25.21
2016-05-05T07:19:41.081Z,25.02
2016-05-05T07:20:44.224Z,25.02
2016-05-05T07:21:43.992Z,24.93
2016-05-05T07:22:46.964Z,24.93
2016-05-05T07:23:43.904Z,25.02
2016-05-05T07:24:40.860Z,25.02
2016-05-05T07:25:40.800Z,25.21
2016-05-05T07:26:40.960Z,24.84
2016-05-05T07:27:40.774Z,25.12
2016-05-05T07:28:43.668Z,24.93
2016-05-05T07:29:40.624Z,25.02
2016-05-05T07:30:40.580Z,24.84
2016-05-05T07:31:40.535Z,25.02
2016-05-05T07:32:40.507Z,25.21
2016-05-05T07:33:43.447Z,25.21
2016-05-05T07:34:40.418Z,25.12
2016-05-05T07:35:40.359Z,25.31
2016-05-05T07:36:43.315Z,25.21
2016-05-05T07:37:43.285Z,25.31
2016-05-05T07:38:43.226Z,25.21
2016-05-05T07:39:40.197Z,25.21
2016-05-05T07:40:40.123Z,25.02
2016-05-05T07:41:46.093Z,25.41
2016-05-05T07:42:40.236Z,25.12
2016-05-05T07:43:39.990Z,25.21
2016-05-05T07:44:39.789Z,25.21
2016-05-05T07:45:39.901Z,25.31
2016-05-05T07:46:39.841Z,25.21
2016-05-05T07:47:42.844Z,25.31
2016-05-05T07:48:42.769Z,25.51
2016-05-05T07:49:39.708Z,25.31
2016-05-05T07:50:39.665Z,25.6
2016-05-05T07:51:39.823Z,25.31
2016-05-05T07:52:42.592Z,25.31
2016-05-05T07:53:39.532Z,25.31
2016-05-05T07:54:39.503Z,25.51
2016-05-05T07:55:42.474Z,25.6
2016-05-05T07:56:39.805Z,25.31
2016-05-05T07:57:39.199Z,25.41
2016-05-05T07:58:39.311Z,25.41
2016-05-05T07:59:39.127Z,25.6
2016-05-05T08:00:39.426Z,25.51
2016-05-05T08:01:39.179Z,25.51
2016-05-05T08:02:39.149Z,25.51
2016-05-05T08:03:39.121Z,25.41
2016-05-05T08:04:39.046Z,25.41
2016-05-05T08:05:39.002Z,25.41
2016-05-05T08:06:38.958Z,25.51
2016-05-05T08:07:38.913Z,25.7
2016-05-05T08:08:41.728Z,25.7
2016-05-05T08:09:41.826Z,25.51
2016-05-05T08:10:38.781Z,25.41
2016-05-05T08:11:38.737Z,25.6
2016-05-05T08:12:38.708Z,25.51
2016-05-05T08:13:41.632Z,25.6
2016-05-05T08:14:38.604Z,25.6
2016-05-05T08:15:41.404Z,25.51
2016-05-05T08:16:38.515Z,25.51
2016-05-05T08:17:38.721Z,25.51
2016-05-05T08:18:38.428Z,25.6
2016-05-05T08:19:41.383Z,25.41
2016-05-05T08:20:38.339Z,25.79
2016-05-05T08:21:38.279Z,25.6
2016-05-05T08:22:38.251Z,25.51
2016-05-05T08:23:42.644Z,25.6
2016-05-05T08:24:38.162Z,25.41
2016-05-05T08:25:38.102Z,25.7
2016-05-05T08:26:38.058Z,25.6
2016-05-05T08:27:38.014Z,25.6
2016-05-05T08:28:37.986Z,25.6
2016-05-05T08:29:37.925Z,25.7
2016-05-05T08:30:37.882Z,25.7
2016-05-05T08:31:37.822Z,25.51
2016-05-05T08:32:37.793Z,25.79
2016-05-05T08:33:37.733Z,25.7
2016-05-05T08:34:37.705Z,25.79
2016-05-05T08:35:37.645Z,25.6
2016-05-05T08:36:40.819Z,25.89
2016-05-05T08:37:37.572Z,25.21
2016-05-05T09:16:40.177Z,17.96
2016-05-05T09:17:40.134Z,17.56
2016-05-05T09:18:40.103Z,17.66
2016-05-05T09:19:40.014Z,17.74
2016-05-05T09:20:39.969Z,18.04
2016-05-05T09:21:42.769Z,17.93
2016-05-05T09:22:39.850Z,18.6
2016-05-05T09:23:39.805Z,18.3
2016-05-05T09:24:40.152Z,18.59
2016-05-05T09:25:42.700Z,18.78
2016-05-05T09:26:39.564Z,18.77
2016-05-05T09:27:43.206Z,19.06
2016-05-05T09:28:39.538Z,18.96
2016-05-05T09:29:39.494Z,18.96
2016-05-05T09:30:42.498Z,18.96
2016-05-05T09:31:42.411Z,19.16
2016-05-05T09:32:39.573Z,19.16
2016-05-05T09:33:42.309Z,18.96
2016-05-05T09:34:39.249Z,18.96
2016-05-05T09:35:42.205Z,19.06
2016-05-05T09:36:38.989Z,19.25
2016-05-05T09:37:39.116Z,19.17
2016-05-05T09:38:39.071Z,19.25
2016-05-05T09:39:39.232Z,19.06
2016-05-05T09:40:38.952Z,19.45
2016-05-05T09:41:38.908Z,19.16
2016-05-05T09:42:38.859Z,19.06
2016-05-05T09:43:38.846Z,18.39
2016-05-05T09:44:41.770Z,18.58
2016-05-05T09:45:44.756Z,18.77
2016-05-05T09:46:38.573Z,18.29
2016-05-05T09:47:40.934Z,18.98
2016-05-05T09:48:38.593Z,18.98
2016-05-05T09:49:38.596Z,18.98
2016-05-05T09:50:38.677Z,18.69
2016-05-05T09:51:38.445Z,18.88
2016-05-05T09:52:38.229Z,18.98
2016-05-05T09:53:38.356Z,18.88
2016-05-05T09:54:38.313Z,18.98
2016-05-05T09:55:41.269Z,19.07
2016-05-05T09:56:38.224Z,18.89
2016-05-05T09:57:38.164Z,19.07
2016-05-05T09:58:38.339Z,19.07
2016-05-05T09:59:38.076Z,19.17
2016-05-05T10:00:38.016Z,19.37
2016-05-05T10:01:37.816Z,19.18
2016-05-05T10:02:37.802Z,19.08
2016-05-05T10:03:37.899Z,19.46
2016-05-05T10:04:37.667Z,19.56
2016-05-05T10:05:37.763Z,19.65
2016-05-05T10:06:37.751Z,19.75
2016-05-05T10:07:37.676Z,19.94
2016-05-05T10:08:37.615Z,19.65
2016-05-05T10:09:37.571Z,19.85
2016-05-05T10:10:41.059Z,19.75
2016-05-05T10:11:37.483Z,19.65
2016-05-05T10:12:37.283Z,20.23
2016-05-05T10:13:37.395Z,20.14
2016-05-05T10:14:40.553Z,20.23
2016-05-05T10:15:37.307Z,20.42
2016-05-05T10:16:37.247Z,20.32
2016-05-05T10:17:40.280Z,20.23
2016-05-05T10:18:37.159Z,20.43
2016-05-05T10:19:37.114Z,20.43
2016-05-05T10:20:37.069Z,20.53
2016-05-05T10:21:37.026Z,20.91
2016-05-05T10:22:37.294Z,20.81
2016-05-05T10:23:36.922Z,20.62
2016-05-05T10:24:37.268Z,20.81
2016-05-05T10:25:36.833Z,20.72
2016-05-05T10:26:36.789Z,20.62
2016-05-05T10:27:36.839Z,20.81
2016-05-05T10:28:39.529Z,20.91
2016-05-05T10:29:39.657Z,20.53
2016-05-05T10:30:36.596Z,21.01
2016-05-05T10:31:36.552Z,20.62
2016-05-05T10:32:36.494Z,21.01
2016-05-05T10:33:36.480Z,21.01
2016-05-05T10:34:36.499Z,20.72
2016-05-05T10:35:36.360Z,20.53
2016-05-05T10:36:36.332Z,20.62
2016-05-05T10:37:36.288Z,20.81
2016-05-05T10:38:36.227Z,20.91
2016-05-05T10:39:36.184Z,20.62
2016-05-05T10:40:35.982Z,20.91
2016-05-05T10:41:36.095Z,21.01
2016-05-05T10:42:36.035Z,21.11
2016-05-05T10:43:39.007Z,21.21
2016-05-05T10:44:35.947Z,20.92
2016-05-05T10:45:35.731Z,20.83
2016-05-05T10:46:35.843Z,20.92
2016-05-05T10:47:35.799Z,21.11
2016-05-05T10:48:35.739Z,21.2
2016-05-05T10:49:35.711Z,21.2
2016-05-05T10:50:35.681Z,21.39
2016-05-05T10:51:38.637Z,21.3
2016-05-05T10:52:35.562Z,21.58
2016-05-05T10:53:35.564Z,21.39
2016-05-05T10:54:35.474Z,21.39
2016-05-05T10:55:35.430Z,21.58
2016-05-05T10:56:35.386Z,21.49
2016-05-05T10:57:35.341Z,21.58
2016-05-05T10:58:35.610Z,21.5
2016-05-05T10:59:35.313Z,21.5
2016-05-05T11:00:35.327Z,21.5
2016-05-05T11:01:35.343Z,21.31
2016-05-05T11:02:35.358Z,21.41
2016-05-05T11:03:35.118Z,21.32
2016-05-05T11:04:35.247Z,21.03
2016-05-05T11:05:35.218Z,21.22
2016-05-05T11:06:35.205Z,21.22
2016-05-05T11:07:35.177Z,21.22
2016-05-05T11:08:34.985Z,21.03
2016-05-05T11:09:35.087Z,20.94
2016-05-05T11:10:35.048Z,21.03
2016-05-05T11:11:35.009Z,20.84
2016-05-05T11:12:34.971Z,20.94
2016-05-05T11:13:34.913Z,21.41
2016-05-05T11:14:34.871Z,20.94
2016-05-05T11:15:34.860Z,20.64
2016-05-05T11:16:34.646Z,20.64
2016-05-05T11:17:34.947Z,20.94
2016-05-05T11:18:34.702Z,21.03
2016-05-05T11:19:37.658Z,21.12
2016-05-05T11:20:34.614Z,21.22
2016-05-05T11:21:34.571Z,20.94
2016-05-05T11:22:34.543Z,21.12
2016-05-05T11:23:34.480Z,20.84
2016-05-05T11:24:37.452Z,21.22
2016-05-05T11:25:34.377Z,21.03
2016-05-05T11:26:34.349Z,21.22
2016-05-05T11:27:34.305Z,20.94
2016-05-05T11:28:34.230Z,20.65
2016-05-05T11:29:34.233Z,20.56
2016-05-05T11:30:37.172Z,20.65
2016-05-05T11:31:34.145Z,20.37
2016-05-05T11:32:34.070Z,20.65
2016-05-05T11:33:34.025Z,20.85
2016-05-05T11:34:33.965Z,20.85
2016-05-05T11:35:33.780Z,20.75
2016-05-05T11:36:33.877Z,20.85
2016-05-05T11:37:33.832Z,20.94
2016-05-05T11:38:33.772Z,20.85
2016-05-05T11:39:33.573Z,20.75
2016-05-05T11:40:33.716Z,20.47
2016-05-05T11:41:33.703Z,20.86
2016-05-05T11:42:33.612Z,20.57
2016-05-05T11:43:36.568Z,20.67
2016-05-05T11:44:33.523Z,20.67
2016-05-05T11:45:36.464Z,20.38
2016-05-05T11:46:36.419Z,20
2016-05-05T11:47:33.860Z,20.57
2016-05-05T11:48:36.331Z,20.18
2016-05-05T11:49:39.334Z,20.38
2016-05-05T11:50:33.227Z,20.18
2016-05-05T11:51:36.182Z,20.28
2016-05-05T11:52:36.170Z,20.57
2016-05-05T11:53:36.110Z,20.47
2016-05-05T11:54:33.160Z,20.38
2016-05-05T11:55:33.007Z,20.38
2016-05-05T11:56:33.150Z,20.09
2016-05-05T11:57:35.918Z,20.28
2016-05-05T11:58:36.076Z,20
2016-05-05T11:59:32.829Z,19.9
2016-05-05T12:00:32.628Z,19.9
2016-05-05T12:01:32.756Z,19.8
2016-05-05T12:02:35.697Z,19.71
2016-05-05T12:03:32.653Z,19.9
2016-05-05T12:04:35.609Z,19.81
2016-05-05T12:05:32.549Z,19.33
2016-05-05T12:06:35.520Z,19.24
2016-05-05T12:07:35.319Z,19.24
2016-05-05T12:08:35.635Z,19.24
2016-05-05T12:09:35.372Z,19.53
2016-05-05T12:10:35.547Z,19.34
2016-05-05T12:11:35.330Z,19.34
2016-05-05T12:12:32.239Z,19.34
2016-05-05T12:13:32.179Z,19.34
2016-05-05T12:14:35.151Z,19.13
2016-05-05T12:15:35.106Z,19.15
2016-05-05T12:16:31.891Z,18.95
2016-05-05T12:17:32.035Z,19.15
2016-05-05T12:18:31.974Z,19.05
2016-05-05T12:19:31.915Z,18.95
2016-05-05T12:20:31.870Z,18.76
2016-05-05T12:21:31.842Z,18.48
2016-05-05T12:22:32.031Z,18.48
2016-05-05T12:23:34.722Z,18.29
2016-05-05T12:24:34.694Z,18.29
2016-05-05T12:25:32.259Z,18.38
2016-05-05T12:26:31.902Z,18.28
2016-05-05T12:27:31.561Z,18.48
2016-05-05T12:28:31.517Z,18.48
2016-05-05T12:29:31.472Z,18.68
2016-05-05T12:30:34.429Z,18.29
2016-05-05T12:31:31.369Z,18.29
2016-05-05T12:32:34.339Z,18.38
2016-05-05T12:33:31.514Z,18.48
2016-05-05T12:34:31.283Z,18.48
2016-05-05T12:35:34.222Z,18.38
2016-05-05T12:36:31.147Z,18.58
2016-05-05T12:37:31.135Z,18.29
2016-05-05T12:38:34.075Z,18.29
2016-05-05T12:39:31.405Z,18.19
2016-05-05T12:40:30.986Z,18.29
2016-05-05T12:41:33.942Z,18.38
2016-05-05T12:42:30.882Z,18.49
2016-05-05T12:43:30.854Z,17.9
2016-05-05T12:44:30.810Z,18
2016-05-05T12:45:30.594Z,18.1
2016-05-05T12:46:33.721Z,17.61
2016-05-05T12:47:30.662Z,17.53
2016-05-05T12:48:30.461Z,17.33
2016-05-05T12:49:33.588Z,17.42
2016-05-05T12:50:33.529Z,17.23
2016-05-05T12:51:33.500Z,17.42
2016-05-05T12:52:30.425Z,17.33
2016-05-05T12:53:30.412Z,17.42
2016-05-05T12:54:39.368Z,17.52
2016-05-05T12:55:33.309Z,17.52
2016-05-05T12:56:30.467Z,17.33
2016-05-05T12:57:30.422Z,17.43
2016-05-05T12:58:30.003Z,17.24
2016-05-05T12:59:33.163Z,17.72
2016-05-05T13:00:29.947Z,17.24
2016-05-05T13:01:33.387Z,17.33
2016-05-05T13:02:30.217Z,17.33
2016-05-05T13:03:29.798Z,17.24
2016-05-05T13:04:29.911Z,17.43
2016-05-05T13:05:29.866Z,17.24
2016-05-05T13:06:29.806Z,17.14
2016-05-05T13:07:29.759Z,17.24
2016-05-05T13:08:29.937Z,17.14
2016-05-05T13:09:29.892Z,17.33
2016-05-05T13:10:32.630Z,17.33
2016-05-05T13:11:32.445Z,17.43
2016-05-05T13:12:29.539Z,17.33
2016-05-05T13:13:29.494Z,17.33
2016-05-05T13:14:32.671Z,17.14
2016-05-05T13:15:29.249Z,16.95
2016-05-05T13:16:29.377Z,16.96
2016-05-05T13:17:29.521Z,17.15
2016-05-05T13:18:29.680Z,17.63
2016-05-05T13:19:32.091Z,17.44
2016-05-05T13:20:29.029Z,17.54
2016-05-05T13:21:29.266Z,17.25
2016-05-05T13:22:29.129Z,17.44
2016-05-05T13:23:29.052Z,17.63
2016-05-05T13:24:29.305Z,17.25
2016-05-05T13:25:29.433Z,17.25
2016-05-05T13:26:31.938Z,17.05
2016-05-05T13:27:28.876Z,16.77
2016-05-05T13:28:28.848Z,17.15
2016-05-05T13:29:32.009Z,16.77
2016-05-05T13:30:28.743Z,16.97
2016-05-05T13:31:31.905Z,16.49
2016-05-05T13:32:28.670Z,16.58